Time;durP1;ratioP1;P1;durP2;ratioP2;P2;SDS_P1;SDS_P2;PMS_P1;PMS_P2;Temp;Humidity;BMP_temperature;BMP_pressure;BME280_temperature;BME280_humidity;BME280_pressure;Samples;Min_cycle;Max_cycle;Signal;HPM_P1;HPM_P2
2023/11/28 00:00:24;;;;;;;2.55;1.80;;;;;;;;;;5134274;27;20370;-72
2023/11/28 00:03:10;;;;;;;3.35;1.80;;;;;;;;;;5133552;27;20438;-73
2023/11/28 00:05:55;;;;;;;4.18;1.98;;;;;;;;;;5120341;27;20030;-72
2023/11/28 00:08:41;;;;;;;2.70;1.83;;;;;;;;;;5134802;27;20072;-72
2023/11/28 00:11:27;;;;;;;3.20;2.10;;;;;;;;;;5133168;27;20015;-72
2023/11/28 00:14:12;;;;;;;2.58;1.80;;;;;;;;;;5134840;27;20469;-72
2023/11/28 00:16:58;;;;;;;2.83;1.90;;;;;;;;;;5134471;28;20522;-72
2023/11/28 00:19:44;;;;;;;2.75;1.75;;;;;;;;;;5133931;27;20020;-73
2023/11/28 00:22:29;;;;;;;1.90;1.50;;;;;;;;;;5120639;28;20023;-74
2023/11/28 00:25:18;;;;;;;2.45;1.80;;;;;;;;;;5120956;28;20019;-74
2023/11/28 00:28:03;;;;;;;3.00;2.00;;;;;;;;;;5135367;28;20128;-73
2023/11/28 00:30:49;;;;;;;2.50;1.63;;;;;;;;;;5120343;28;20071;-73
2023/11/28 00:33:35;;;;;;;3.30;1.73;;;;;;;;;;5134301;28;20034;-72
2023/11/28 00:36:21;;;;;;;2.50;1.50;;;;;;;;;;5106603;28;20023;-74
2023/11/28 00:39:06;;;;;;;2.38;1.67;;;;;;;;;;5134360;28;20023;-74
2023/11/28 00:41:53;;;;;;;2.13;1.60;;;;;;;;;;5135054;28;20015;-74
2023/11/28 00:44:40;;;;;;;3.05;1.70;;;;;;;;;;5134776;28;20098;-73
2023/11/28 00:47:25;;;;;;;2.50;1.77;;;;;;;;;;5120690;28;20117;-73
2023/11/28 00:50:11;;;;;;;2.80;1.70;;;;;;;;;;5134166;28;20029;-73
2023/11/28 00:52:57;;;;;;;1.83;1.52;;;;;;;;;;5133520;28;20070;-73
2023/11/28 00:55:42;;;;;;;3.08;1.80;;;;;;;;;;5134400;28;20023;-72
2023/11/28 00:58:28;;;;;;;1.45;1.30;;;;;;;;;;5134897;28;20423;-72
2023/11/28 01:01:13;;;;;;;1.98;1.20;;;;;;;;;;5133038;28;20027;-73
2023/11/28 01:03:59;;;;;;;2.33;1.33;;;;;;;;;;5120209;28;20055;-74
2023/11/28 01:06:45;;;;;;;2.70;1.48;;;;;;;;;;5135108;28;20019;-72
2023/11/28 01:09:33;;;;;;;2.35;1.45;;;;;;;;;;5134457;28;20469;-72
2023/11/28 01:12:19;;;;;;;2.72;1.45;;;;;;;;;;5134819;28;20019;-72
2023/11/28 01:15:06;;;;;;;2.25;1.38;;;;;;;;;;5119855;28;20435;-72
2023/11/28 01:17:53;;;;;;;2.30;1.55;;;;;;;;;;5119122;28;20035;-73
2023/11/28 01:20:40;;;;;;;2.10;1.40;;;;;;;;;;5133850;28;20081;-73
2023/11/28 01:23:26;;;;;;;2.47;1.35;;;;;;;;;;5133232;28;20324;-73
2023/11/28 01:26:13;;;;;;;2.20;1.50;;;;;;;;;;5117390;28;20053;-74
2023/11/28 01:28:58;;;;;;;2.03;1.35;;;;;;;;;;5118752;28;20030;-73
2023/11/28 01:31:44;;;;;;;2.53;1.42;;;;;;;;;;5121238;27;20111;-73
2023/11/28 01:34:30;;;;;;;1.67;1.40;;;;;;;;;;5138438;27;20494;-73
2023/11/28 01:37:18;;;;;;;1.75;1.33;;;;;;;;;;5137371;27;20043;-73
2023/11/28 01:40:03;;;;;;;1.35;1.20;;;;;;;;;;5137944;27;20099;-73
2023/11/28 01:42:49;;;;;;;3.08;1.30;;;;;;;;;;5138066;27;20469;-73
2023/11/28 01:45:35;;;;;;;1.27;1.15;;;;;;;;;;5137276;27;20023;-73
2023/11/28 01:48:21;;;;;;;1.95;1.40;;;;;;;;;;5137580;27;20033;-71
2023/11/28 01:51:07;;;;;;;1.65;1.25;;;;;;;;;;5121088;27;20035;-73
2023/11/28 01:53:56;;;;;;;2.13;1.33;;;;;;;;;;5136456;27;20023;-73
2023/11/28 01:56:42;;;;;;;1.58;1.30;;;;;;;;;;5121441;27;20118;-75
2023/11/28 01:59:29;;;;;;;1.50;1.30;;;;;;;;;;5137141;27;20015;-74
2023/11/28 02:02:14;;;;;;;3.17;1.20;;;;;;;;;;5136840;27;20074;-74
2023/11/28 02:05:00;;;;;;;1.55;1.20;;;;;;;;;;5137592;27;20023;-74
2023/11/28 02:07:46;;;;;;;2.38;1.35;;;;;;;;;;5136445;27;20535;-73
2023/11/28 02:10:33;;;;;;;1.98;1.30;;;;;;;;;;5136204;27;20020;-74
2023/11/28 02:13:19;;;;;;;1.65;1.30;;;;;;;;;;5136987;27;20012;-73
2023/11/28 02:16:15;;;;;;;1.70;1.25;;;;;;;;;;5136103;27;20205;-74
2023/11/28 02:19:02;;;;;;;1.70;1.20;;;;;;;;;;5135879;27;20007;-72
2023/11/28 02:21:48;;;;;;;2.45;1.50;;;;;;;;;;5121970;27;20072;-74
2023/11/28 02:24:38;;;;;;;2.25;1.52;;;;;;;;;;5136878;27;20019;-72
2023/11/28 02:27:23;;;;;;;1.80;1.17;;;;;;;;;;5137577;27;20016;-74
2023/11/28 02:30:09;;;;;;;2.17;1.60;;;;;;;;;;5136356;27;20030;-73
2023/11/28 02:32:55;;;;;;;3.35;1.80;;;;;;;;;;5121953;27;20030;-74
2023/11/28 02:35:40;;;;;;;4.63;1.73;;;;;;;;;;5136776;27;20026;-73
2023/11/28 02:38:26;;;;;;;3.97;1.73;;;;;;;;;;5136365;27;20366;-72
2023/11/28 02:41:12;;;;;;;4.78;1.90;;;;;;;;;;5135621;27;20047;-73
2023/11/28 02:43:59;;;;;;;3.90;1.77;;;;;;;;;;5135751;27;20030;-73
2023/11/28 02:46:44;;;;;;;5.82;2.13;;;;;;;;;;5135282;27;20038;-73
2023/11/28 02:49:30;;;;;;;4.68;2.25;;;;;;;;;;5121893;27;20067;-74
2023/11/28 02:52:15;;;;;;;3.53;2.15;;;;;;;;;;5121540;27;20394;-73
2023/11/28 02:55:01;;;;;;;2.95;1.92;;;;;;;;;;5136651;27;20019;-74
2023/11/28 02:57:47;;;;;;;2.72;1.73;;;;;;;;;;5136695;27;20114;-73
2023/11/28 03:00:32;;;;;;;3.20;1.92;;;;;;;;;;5121364;27;20019;-74
2023/11/28 03:03:18;;;;;;;2.47;1.77;;;;;;;;;;5136201;27;20026;-73
2023/11/28 03:06:04;;;;;;;2.47;1.45;;;;;;;;;;5136137;27;20027;-73
2023/11/28 03:08:49;;;;;;;2.63;1.83;;;;;;;;;;5136140;27;20028;-74
2023/11/28 03:11:35;;;;;;;2.13;1.70;;;;;;;;;;5134941;27;20423;-74
2023/11/28 03:14:20;;;;;;;3.75;1.90;;;;;;;;;;5134980;27;20053;-74
2023/11/28 03:17:06;;;;;;;2.78;1.80;;;;;;;;;;5136486;27;20102;-74
2023/11/28 03:19:52;;;;;;;2.92;1.80;;;;;;;;;;5136082;27;20030;-74
2023/11/28 03:22:37;;;;;;;2.17;1.60;;;;;;;;;;5135850;27;20045;-74
2023/11/28 03:25:23;;;;;;;2.85;1.73;;;;;;;;;;5135394;27;20478;-74
2023/11/28 03:28:09;;;;;;;3.47;1.63;;;;;;;;;;5120930;27;20019;-73
2023/11/28 03:30:54;;;;;;;3.00;2.00;;;;;;;;;;5120876;27;20027;-74
2023/11/28 03:33:40;;;;;;;2.60;1.70;;;;;;;;;;5135849;27;20440;-73
2023/11/28 03:36:25;;;;;;;3.45;2.22;;;;;;;;;;5120615;27;20027;-73
2023/11/28 03:39:11;;;;;;;4.47;2.50;;;;;;;;;;5135628;27;20160;-73
2023/11/28 03:41:56;;;;;;;2.33;1.90;;;;;;;;;;5121084;27;20061;-71
2023/11/28 03:44:42;;;;;;;2.95;1.90;;;;;;;;;;5134502;27;20123;-74
2023/11/28 03:47:27;;;;;;;2.53;1.98;;;;;;;;;;5120322;27;20456;-74
2023/11/28 03:50:13;;;;;;;4.15;2.13;;;;;;;;;;5134932;27;20019;-74
2023/11/28 03:52:59;;;;;;;4.05;2.28;;;;;;;;;;5134975;27;20016;-74
2023/11/28 03:55:44;;;;;;;3.15;1.88;;;;;;;;;;5135295;27;20015;-74
2023/11/28 03:58:30;;;;;;;2.63;1.58;;;;;;;;;;5120563;27;20019;-74
2023/11/28 04:01:15;;;;;;;2.50;1.58;;;;;;;;;;5120221;27;20022;-74
2023/11/28 04:04:01;;;;;;;3.75;2.42;;;;;;;;;;5135939;27;20023;-73
2023/11/28 04:06:47;;;;;;;3.08;2.10;;;;;;;;;;5136445;27;20054;-74
2023/11/28 04:09:33;;;;;;;4.22;2.38;;;;;;;;;;5135779;27;20360;-73
2023/11/28 04:12:18;;;;;;;3.50;2.17;;;;;;;;;;5134143;27;20096;-74
2023/11/28 04:15:04;;;;;;;4.70;2.28;;;;;;;;;;5133756;27;20035;-73
2023/11/28 04:17:50;;;;;;;2.92;2.20;;;;;;;;;;5134188;28;20106;-73
2023/11/28 04:20:36;;;;;;;3.47;2.10;;;;;;;;;;5135525;28;20015;-73
2023/11/28 04:23:21;;;;;;;3.08;2.30;;;;;;;;;;5133932;28;20405;-73
2023/11/28 04:26:07;;;;;;;3.33;2.30;;;;;;;;;;5134243;28;20436;-74
2023/11/28 04:28:53;;;;;;;3.13;2.20;;;;;;;;;;5119758;28;20420;-74
2023/11/28 04:31:38;;;;;;;2.35;1.80;;;;;;;;;;5118486;28;20027;-72
2023/11/28 04:34:24;;;;;;;3.15;1.85;;;;;;;;;;5119948;28;20027;-72
2023/11/28 04:37:09;;;;;;;3.38;2.20;;;;;;;;;;5119705;28;20121;-74
2023/11/28 04:39:55;;;;;;;5.03;2.50;;;;;;;;;;5134082;28;20019;-74
2023/11/28 04:42:40;;;;;;;3.80;2.40;;;;;;;;;;5135223;28;20440;-73
2023/11/28 04:45:26;;;;;;;4.25;2.20;;;;;;;;;;5133964;28;20049;-74
2023/11/28 04:48:12;;;;;;;3.05;1.90;;;;;;;;;;5135288;28;20019;-74
2023/11/28 04:50:57;;;;;;;2.50;1.83;;;;;;;;;;5119705;28;20043;-73
2023/11/28 04:53:43;;;;;;;2.45;1.88;;;;;;;;;;5133915;28;20015;-73
2023/11/28 04:56:29;;;;;;;4.10;2.50;;;;;;;;;;5119584;28;20023;-73
2023/11/28 04:59:14;;;;;;;6.03;2.95;;;;;;;;;;5133554;28;20362;-73
2023/11/28 05:02:00;;;;;;;2.85;2.17;;;;;;;;;;5119958;28;20011;-73
2023/11/28 05:04:45;;;;;;;3.50;2.38;;;;;;;;;;5133975;27;20163;-73
2023/11/28 05:07:31;;;;;;;3.08;2.00;;;;;;;;;;5123549;27;20447;-73
2023/11/28 05:10:17;;;;;;;3.40;2.20;;;;;;;;;;5136697;27;20019;-74
2023/11/28 05:13:04;;;;;;;2.85;2.30;;;;;;;;;;5137154;27;20038;-73
2023/11/28 05:15:50;;;;;;;3.40;2.00;;;;;;;;;;5123004;27;20019;-73
2023/11/28 05:18:35;;;;;;;4.20;2.50;;;;;;;;;;5137771;27;20059;-73
2023/11/28 05:21:21;;;;;;;2.95;1.90;;;;;;;;;;5122648;27;20375;-73
2023/11/28 05:24:08;;;;;;;3.95;2.28;;;;;;;;;;5137054;27;20393;-73
2023/11/28 05:26:54;;;;;;;2.65;1.75;;;;;;;;;;5136936;27;20064;-72
2023/11/28 05:29:40;;;;;;;2.88;1.75;;;;;;;;;;5122539;27;20107;-72
2023/11/28 05:32:25;;;;;;;2.72;1.73;;;;;;;;;;5136963;27;20034;-73
2023/11/28 05:35:11;;;;;;;2.80;1.80;;;;;;;;;;5121406;27;20106;-73
2023/11/28 05:37:56;;;;;;;2.35;1.73;;;;;;;;;;5121582;27;20023;-73
2023/11/28 05:40:42;;;;;;;2.60;2.00;;;;;;;;;;5121475;27;20488;-73
2023/11/28 05:43:29;;;;;;;2.70;1.85;;;;;;;;;;5136868;27;20023;-73
2023/11/28 05:46:14;;;;;;;3.00;2.03;;;;;;;;;;5136263;27;20015;-73
2023/11/28 05:49:00;;;;;;;4.22;3.10;;;;;;;;;;5136842;27;20060;-73
2023/11/28 05:51:45;;;;;;;6.85;3.75;;;;;;;;;;5136652;27;20108;-73
2023/11/28 05:54:31;;;;;;;4.63;3.25;;;;;;;;;;5136449;27;20019;-73
2023/11/28 05:57:18;;;;;;;5.63;3.40;;;;;;;;;;5136068;27;20406;-73
2023/11/28 06:00:04;;;;;;;6.43;3.85;;;;;;;;;;5135961;27;20038;-73
2023/11/28 06:02:50;;;;;;;5.75;3.70;;;;;;;;;;5121194;27;20015;-72
2023/11/28 06:05:37;;;;;;;7.80;4.10;;;;;;;;;;5135950;27;20106;-73
2023/11/28 06:08:22;;;;;;;5.47;3.75;;;;;;;;;;5135935;27;20050;-73
2023/11/28 06:11:09;;;;;;;6.05;3.72;;;;;;;;;;5136402;27;20066;-74
2023/11/28 06:13:54;;;;;;;6.80;3.50;;;;;;;;;;5135965;27;20015;-73
2023/11/28 06:16:40;;;;;;;7.22;4.30;;;;;;;;;;5121224;27;20026;-74
2023/11/28 06:19:26;;;;;;;7.38;4.82;;;;;;;;;;5135687;27;20042;-73
2023/11/28 06:22:12;;;;;;;9.77;5.43;;;;;;;;;;5134725;27;20030;-73
2023/11/28 06:24:58;;;;;;;9.13;5.35;;;;;;;;;;5135821;27;20022;-74
2023/11/28 06:27:43;;;;;;;8.75;5.32;;;;;;;;;;5135599;27;20092;-72
2023/11/28 06:30:29;;;;;;;7.88;4.43;;;;;;;;;;5135664;27;20081;-73
2023/11/28 06:33:15;;;;;;;5.72;3.80;;;;;;;;;;5135894;27;20098;-73
2023/11/28 06:36:01;;;;;;;6.45;3.90;;;;;;;;;;5135246;27;20046;-73
2023/11/28 06:38:46;;;;;;;6.95;4.22;;;;;;;;;;5135104;27;20023;-77
2023/11/28 06:41:32;;;;;;;6.65;4.20;;;;;;;;;;5136632;27;20115;-75
2023/11/28 06:44:21;;;;;;;6.90;4.47;;;;;;;;;;5135276;27;20102;-74
2023/11/28 06:47:07;;;;;;;6.93;4.35;;;;;;;;;;5136099;27;20389;-74
2023/11/28 06:49:52;;;;;;;7.43;5.30;;;;;;;;;;5135334;27;20030;-70
2023/11/28 06:52:38;;;;;;;8.52;5.47;;;;;;;;;;5136612;27;20036;-72
2023/11/28 06:55:23;;;;;;;10.07;5.45;;;;;;;;;;5135368;27;20043;-73
2023/11/28 06:58:09;;;;;;;8.82;5.50;;;;;;;;;;5135101;27;20034;-73
2023/11/28 07:00:55;;;;;;;11.45;7.00;;;;;;;;;;5134768;27;20047;-72
2023/11/28 07:03:41;;;;;;;12.43;6.90;;;;;;;;;;5135408;27;20048;-73
2023/11/28 07:06:26;;;;;;;9.35;5.50;;;;;;;;;;5135178;27;20022;-73
2023/11/28 07:09:12;;;;;;;9.07;5.10;;;;;;;;;;5135994;27;20057;-73
2023/11/28 07:11:58;;;;;;;7.03;4.65;;;;;;;;;;5135935;27;20015;-73
2023/11/28 07:14:43;;;;;;;7.60;4.35;;;;;;;;;;5114335;27;20024;-73
2023/11/28 07:17:29;;;;;;;5.65;3.45;;;;;;;;;;5113690;28;20020;-73
2023/11/28 07:20:14;;;;;;;7.32;3.70;;;;;;;;;;5114024;28;20027;-72
2023/11/28 07:23:01;;;;;;;4.32;2.85;;;;;;;;;;5113293;28;20023;-72
2023/11/28 07:25:47;;;;;;;5.18;3.08;;;;;;;;;;5113940;28;20028;-72
2023/11/28 07:28:32;;;;;;;6.00;3.28;;;;;;;;;;5126576;27;20095;-72
2023/11/28 07:31:18;;;;;;;3.92;2.80;;;;;;;;;;5134547;27;20007;-71
2023/11/28 07:34:04;;;;;;;5.82;2.60;;;;;;;;;;5105202;27;20101;-72
2023/11/28 07:36:51;;;;;;;5.07;3.03;;;;;;;;;;5132796;27;20390;-72
2023/11/28 07:39:37;;;;;;;7.47;3.95;;;;;;;;;;5104724;27;20035;-72
2023/11/28 07:42:23;;;;;;;11.30;6.38;;;;;;;;;;5133468;27;20062;-73
2023/11/28 07:45:09;;;;;;;18.00;9.30;;;;;;;;;;5133579;27;20030;-75
2023/11/28 07:47:55;;;;;;;14.68;8.40;;;;;;;;;;5109028;27;20015;-72
2023/11/28 07:50:41;;;;;;;14.55;7.25;;;;;;;;;;5123169;27;20112;-74
2023/11/28 07:53:26;;;;;;;15.68;7.80;;;;;;;;;;5131360;27;20020;-73
2023/11/28 07:56:13;;;;;;;16.05;6.75;;;;;;;;;;5133445;27;20015;-72
2023/11/28 07:58:59;;;;;;;13.27;6.90;;;;;;;;;;5118616;27;20024;-72
2023/11/28 08:01:45;;;;;;;10.73;5.97;;;;;;;;;;5132863;27;20319;-75
2023/11/28 08:04:31;;;;;;;11.27;6.22;;;;;;;;;;5114023;27;20439;-72
2023/11/28 08:07:17;;;;;;;9.43;6.07;;;;;;;;;;5128411;27;20027;-73
2023/11/28 08:10:05;;;;;;;13.20;5.50;;;;;;;;;;5116485;27;20019;-72
2023/11/28 08:12:50;;;;;;;9.10;5.65;;;;;;;;;;5104297;27;20015;-72
2023/11/28 08:15:36;;;;;;;8.07;4.90;;;;;;;;;;5132044;27;20514;-73
2023/11/28 08:18:22;;;;;;;6.63;4.88;;;;;;;;;;5118941;28;20055;-72
2023/11/28 08:21:08;;;;;;;10.15;5.82;;;;;;;;;;5118231;28;20594;-72
2023/11/28 08:23:54;;;;;;;9.35;5.20;;;;;;;;;;5127716;28;20401;-72
2023/11/28 08:26:39;;;;;;;9.35;4.90;;;;;;;;;;5132836;28;20500;-72
2023/11/28 08:29:25;;;;;;;8.10;4.82;;;;;;;;;;5133113;28;20413;-71
2023/11/28 08:32:11;;;;;;;7.75;4.53;;;;;;;;;;5123159;28;20080;-72
2023/11/28 08:34:57;;;;;;;10.60;5.32;;;;;;;;;;5130091;28;20512;-72
2023/11/28 08:37:42;;;;;;;9.43;5.30;;;;;;;;;;5118129;28;20583;-71
2023/11/28 08:40:28;;;;;;;11.98;5.68;;;;;;;;;;5121463;27;20077;-72
2023/11/28 08:43:13;;;;;;;10.65;6.20;;;;;;;;;;5120979;27;20027;-72
2023/11/28 08:45:59;;;;;;;9.98;5.95;;;;;;;;;;5111677;27;20050;-72
2023/11/28 08:48:45;;;;;;;9.88;5.65;;;;;;;;;;5120796;27;20470;-72
2023/11/28 08:51:30;;;;;;;10.18;5.82;;;;;;;;;;5131014;27;20530;-72
2023/11/28 08:54:16;;;;;;;6.70;3.85;;;;;;;;;;5137139;27;20042;-72
2023/11/28 08:57:02;;;;;;;6.90;3.72;;;;;;;;;;5136342;27;20037;-72
2023/11/28 08:59:48;;;;;;;7.00;4.22;;;;;;;;;;5137162;27;20023;-72
2023/11/28 09:02:34;;;;;;;7.95;4.45;;;;;;;;;;5135370;27;20450;-72
2023/11/28 09:05:20;;;;;;;8.63;4.65;;;;;;;;;;5115093;27;20126;-73
2023/11/28 09:08:06;;;;;;;10.02;4.82;;;;;;;;;;5116016;28;20016;-71
2023/11/28 09:10:52;;;;;;;8.75;4.90;;;;;;;;;;5114949;28;20031;-72
2023/11/28 09:13:37;;;;;;;11.05;4.20;;;;;;;;;;5125916;27;20102;-72
2023/11/28 09:16:23;;;;;;;6.60;4.05;;;;;;;;;;5115349;28;20105;-73
2023/11/28 09:19:09;;;;;;;6.60;3.70;;;;;;;;;;5134428;27;20554;-73
2023/11/28 09:21:54;;;;;;;9.20;4.20;;;;;;;;;;5121048;27;20110;-72
2023/11/28 09:24:40;;;;;;;9.30;4.05;;;;;;;;;;5136198;27;20489;-72
2023/11/28 09:27:25;;;;;;;7.63;4.28;;;;;;;;;;5136140;27;20031;-73
2023/11/28 09:30:11;;;;;;;7.93;4.18;;;;;;;;;;5134584;27;20469;-72
2023/11/28 09:32:57;;;;;;;8.23;4.50;;;;;;;;;;5117024;27;20116;-73
2023/11/28 09:35:44;;;;;;;8.50;4.80;;;;;;;;;;5135041;27;20019;-73
2023/11/28 09:38:31;;;;;;;8.90;5.13;;;;;;;;;;5135379;27;20114;-73
2023/11/28 09:41:23;;;;;;;7.35;5.07;;;;;;;;;;5115167;28;20019;-72
2023/11/28 09:44:08;;;;;;;8.98;5.32;;;;;;;;;;5115207;28;20110;-72
2023/11/28 09:46:56;;;;;;;10.48;5.50;;;;;;;;;;5116025;28;20339;-72
2023/11/28 09:49:42;;;;;;;10.75;5.85;;;;;;;;;;5118148;27;20015;-72
2023/11/28 09:52:31;;;;;;;10.30;6.22;;;;;;;;;;5109870;27;20046;-72
2023/11/28 09:55:19;;;;;;;10.93;6.90;;;;;;;;;;5123221;27;20405;-71
2023/11/28 09:58:05;;;;;;;11.68;7.55;;;;;;;;;;5120630;27;20394;-72
2023/11/28 10:00:51;;;;;;;16.83;9.73;;;;;;;;;;5115474;28;20356;-72
2023/11/28 10:03:37;;;;;;;20.23;11.43;;;;;;;;;;5135161;27;20027;-73
2023/11/28 10:06:24;;;;;;;19.10;11.55;;;;;;;;;;5114861;27;20026;-67
2023/11/28 10:09:10;;;;;;;14.20;9.40;;;;;;;;;;5115361;27;20440;-72
2023/11/28 10:11:57;;;;;;;11.25;7.07;;;;;;;;;;5115109;28;20024;-72
2023/11/28 10:14:46;;;;;;;13.98;6.40;;;;;;;;;;5135259;27;20082;-71
2023/11/28 10:17:32;;;;;;;11.27;6.60;;;;;;;;;;5115788;28;20141;-73
2023/11/28 10:20:17;;;;;;;12.23;6.90;;;;;;;;;;5115511;28;20352;-71
2023/11/28 10:23:03;;;;;;;19.55;10.80;;;;;;;;;;5115665;27;20028;-72
2023/11/28 10:25:49;;;;;;;19.35;12.00;;;;;;;;;;5115104;28;20023;-72
2023/11/28 10:28:35;;;;;;;21.77;12.15;;;;;;;;;;5135551;27;20192;-73
2023/11/28 10:31:21;;;;;;;24.40;12.90;;;;;;;;;;5115453;28;20102;-71
2023/11/28 10:34:09;;;;;;;20.27;11.73;;;;;;;;;;5100453;28;20102;-71
2023/11/28 10:36:56;;;;;;;20.58;10.95;;;;;;;;;;5114247;28;20034;-70
2023/11/28 10:39:44;;;;;;;16.50;9.45;;;;;;;;;;5114239;28;20019;-72
2023/11/28 10:42:30;;;;;;;17.58;9.73;;;;;;;;;;5115227;28;20020;-72
2023/11/28 10:45:17;;;;;;;24.17;13.23;;;;;;;;;;5116503;28;20023;-71
2023/11/28 10:48:04;;;;;;;25.42;15.38;;;;;;;;;;5115292;28;20458;-72
2023/11/28 10:50:49;;;;;;;23.20;14.02;;;;;;;;;;5115245;28;20111;-72
2023/11/28 10:53:35;;;;;;;23.83;14.20;;;;;;;;;;5117654;28;20019;-73
2023/11/28 10:56:22;;;;;;;22.48;13.20;;;;;;;;;;5116529;28;20035;-73
2023/11/28 10:59:11;;;;;;;22.75;13.05;;;;;;;;;;5115577;28;20024;-71
2023/11/28 11:01:57;;;;;;;18.73;10.95;;;;;;;;;;5115360;28;20177;-71
2023/11/28 11:04:45;;;;;;;20.77;11.50;;;;;;;;;;5101076;28;20028;-71
2023/11/28 11:07:30;;;;;;;19.65;11.40;;;;;;;;;;5114848;28;20426;-71
2023/11/28 11:10:17;;;;;;;16.02;9.05;;;;;;;;;;5114621;28;20027;-72
2023/11/28 11:13:17;;;;;;;9.82;5.43;;;;;;;;;;5100935;28;20114;-72
2023/11/28 11:16:15;;;;;;;10.07;5.47;;;;;;;;;;5115296;28;20024;-72
2023/11/28 11:19:03;;;;;;;7.82;4.68;;;;;;;;;;5114138;28;20103;-71
2023/11/28 11:22:00;;;;;;;11.00;4.60;;;;;;;;;;5114037;28;20448;-72
2023/11/28 11:24:46;;;;;;;11.15;4.70;;;;;;;;;;5114967;28;20369;-72
2023/11/28 11:27:32;;;;;;;8.43;4.20;;;;;;;;;;5100136;28;20038;-73
2023/11/28 11:30:18;;;;;;;7.80;4.55;;;;;;;;;;5113989;28;20015;-72
2023/11/28 11:33:07;;;;;;;9.07;5.38;;;;;;;;;;5114509;28;20016;-73
2023/11/28 11:36:14;;;;;;;9.73;5.30;;;;;;;;;;5114644;28;20027;-73
2023/11/28 11:38:59;;;;;;;7.90;5.13;;;;;;;;;;5100578;28;20020;-72
2023/11/28 11:41:45;;;;;;;12.27;6.18;;;;;;;;;;5099784;28;20020;-71
2023/11/28 11:44:30;;;;;;;8.00;5.28;;;;;;;;;;5099513;28;20012;-73
2023/11/28 11:47:18;;;;;;;7.10;4.60;;;;;;;;;;5114145;28;20448;-72
2023/11/28 11:50:05;;;;;;;7.85;4.38;;;;;;;;;;5115151;28;20023;-72
2023/11/28 11:52:51;;;;;;;11.30;5.47;;;;;;;;;;5114200;28;20456;-72
2023/11/28 11:55:36;;;;;;;13.27;6.82;;;;;;;;;;5100055;28;20037;-72
2023/11/28 11:58:22;;;;;;;10.25;6.25;;;;;;;;;;5113873;28;20102;-73
2023/11/28 12:01:08;;;;;;;10.90;6.00;;;;;;;;;;5114742;28;20027;-71
2023/11/28 12:03:58;;;;;;;11.15;6.03;;;;;;;;;;5114343;28;20467;-72
2023/11/28 12:06:43;;;;;;;10.18;5.50;;;;;;;;;;5114518;28;20102;-70
2023/11/28 12:09:29;;;;;;;8.52;5.32;;;;;;;;;;5100199;28;20321;-73
2023/11/28 12:12:15;;;;;;;9.30;5.30;;;;;;;;;;5113316;28;20035;-71
2023/11/28 12:15:01;;;;;;;10.07;5.97;;;;;;;;;;5114310;28;20057;-71
2023/11/28 12:17:46;;;;;;;15.13;7.75;;;;;;;;;;5113924;28;20425;-72
2023/11/28 12:20:32;;;;;;;11.57;7.03;;;;;;;;;;5114497;28;20019;-72
2023/11/28 12:23:18;;;;;;;12.27;7.22;;;;;;;;;;5099485;28;20016;-72
2023/11/28 12:26:04;;;;;;;16.27;7.15;;;;;;;;;;5113636;28;20141;-72
2023/11/28 12:28:50;;;;;;;10.70;7.32;;;;;;;;;;5114171;28;20156;-71
2023/11/28 12:31:36;;;;;;;14.65;8.48;;;;;;;;;;5113920;28;20042;-71
2023/11/28 12:34:22;;;;;;;17.70;9.48;;;;;;;;;;5113528;28;20032;-70
2023/11/28 12:37:08;;;;;;;18.95;9.38;;;;;;;;;;5113125;28;20027;-71
2023/11/28 12:39:54;;;;;;;18.73;10.60;;;;;;;;;;5113500;28;20024;-70
2023/11/28 12:42:44;;;;;;;18.77;9.73;;;;;;;;;;5100890;28;20085;-71
2023/11/28 12:45:32;;;;;;;21.05;11.68;;;;;;;;;;5099439;28;20051;-71
2023/11/28 12:48:18;;;;;;;24.10;11.55;;;;;;;;;;5113919;28;20043;-72
2023/11/28 12:51:05;;;;;;;22.40;12.40;;;;;;;;;;5113556;28;20063;-71
2023/11/28 12:53:51;;;;;;;22.60;12.77;;;;;;;;;;5113827;28;20024;-72
2023/11/28 12:56:38;;;;;;;22.92;12.40;;;;;;;;;;5113663;28;20055;-71
2023/11/28 12:59:23;;;;;;;22.98;12.68;;;;;;;;;;5113283;28;20419;-71
2023/11/28 13:02:09;;;;;;;21.00;12.93;;;;;;;;;;5112895;28;20071;-70
2023/11/28 13:04:55;;;;;;;22.75;13.63;;;;;;;;;;5130211;28;20057;-71
2023/11/28 13:07:40;;;;;;;19.90;12.63;;;;;;;;;;5098995;28;20019;-71
2023/11/28 13:10:26;;;;;;;23.05;14.02;;;;;;;;;;5097899;28;20011;-70
2023/11/28 13:13:11;;;;;;;25.92;13.45;;;;;;;;;;5113525;28;20114;-70
2023/11/28 13:15:57;;;;;;;29.23;12.52;;;;;;;;;;5113181;28;20015;-70
2023/11/28 13:18:43;;;;;;;28.00;12.80;;;;;;;;;;5114345;28;20020;-71
2023/11/28 13:21:31;;;;;;;27.58;13.82;;;;;;;;;;5125547;28;20382;-70
2023/11/28 13:24:16;;;;;;;28.55;15.32;;;;;;;;;;5132298;28;20024;-70
2023/11/28 13:27:02;;;;;;;37.22;19.27;;;;;;;;;;5135556;27;20475;-72
2023/11/28 13:29:48;;;;;;;40.95;20.73;;;;;;;;;;5137111;27;20049;-73
2023/11/28 13:32:33;;;;;;;38.35;20.92;;;;;;;;;;5136394;27;20019;-73
2023/11/28 13:35:19;;;;;;;38.10;21.35;;;;;;;;;;5135794;27;20019;-72
2023/11/28 13:38:05;;;;;;;60.35;27.52;;;;;;;;;;5122440;27;20023;-68
2023/11/28 13:40:52;;;;;;;54.22;25.33;;;;;;;;;;5136035;27;20023;-69
2023/11/28 13:43:39;;;;;;;42.33;22.67;;;;;;;;;;5135666;27;20023;-68
2023/11/28 13:46:24;;;;;;;36.30;21.50;;;;;;;;;;5136796;27;20081;-68
2023/11/28 13:49:10;;;;;;;35.40;21.42;;;;;;;;;;5122682;27;20421;-70
2023/11/28 13:51:56;;;;;;;32.00;18.95;;;;;;;;;;5136018;27;20126;-68
2023/11/28 13:54:41;;;;;;;39.15;20.88;;;;;;;;;;5121442;27;20033;-67
2023/11/28 13:57:28;;;;;;;37.08;22.05;;;;;;;;;;5130874;27;20058;-69
2023/11/28 14:00:17;;;;;;;30.73;17.63;;;;;;;;;;5116688;28;20035;-69
2023/11/28 14:03:03;;;;;;;38.65;19.13;;;;;;;;;;5116851;28;20027;-68
2023/11/28 14:05:49;;;;;;;32.65;17.98;;;;;;;;;;5116680;28;20024;-68
2023/11/28 14:08:35;;;;;;;31.10;18.92;;;;;;;;;;5116525;28;20024;-68
2023/11/28 14:11:20;;;;;;;34.47;19.38;;;;;;;;;;5115838;28;20024;-68
2023/11/28 14:14:06;;;;;;;32.67;20.25;;;;;;;;;;5116891;28;20016;-69
2023/11/28 14:16:52;;;;;;;38.08;20.95;;;;;;;;;;5116601;28;20380;-69
2023/11/28 14:19:40;;;;;;;37.22;21.60;;;;;;;;;;5115942;28;20019;-69
2023/11/28 14:22:26;;;;;;;31.88;19.23;;;;;;;;;;5116158;28;20031;-69
2023/11/28 14:25:13;;;;;;;40.05;22.98;;;;;;;;;;5115733;28;20110;-69
2023/11/28 14:27:59;;;;;;;30.83;19.88;;;;;;;;;;5128098;27;20023;-69
2023/11/28 14:30:45;;;;;;;16.02;11.48;;;;;;;;;;5136130;27;20386;-69
2023/11/28 14:33:30;;;;;;;17.30;10.93;;;;;;;;;;5121476;27;20030;-70
2023/11/28 14:36:16;;;;;;;20.35;12.32;;;;;;;;;;5135585;27;20454;-69
2023/11/28 14:39:02;;;;;;;9.07;6.65;;;;;;;;;;5134883;27;20051;-69
2023/11/28 14:41:47;;;;;;;8.10;6.03;;;;;;;;;;5120982;27;20106;-68
2023/11/28 14:44:33;;;;;;;7.00;5.38;;;;;;;;;;5135229;27;20019;-69
2023/11/28 14:47:20;;;;;;;7.40;5.15;;;;;;;;;;5135138;27;20098;-69
2023/11/28 14:50:05;;;;;;;8.73;5.30;;;;;;;;;;5135895;27;20015;-69
2023/11/28 14:52:51;;;;;;;7.28;5.55;;;;;;;;;;5136199;27;20054;-69
2023/11/28 14:55:37;;;;;;;10.60;5.80;;;;;;;;;;5135260;27;20061;-69
2023/11/28 14:58:22;;;;;;;9.93;5.40;;;;;;;;;;5134885;27;20506;-68
2023/11/28 15:01:08;;;;;;;10.07;5.28;;;;;;;;;;5134544;27;20047;-68
2023/11/28 15:03:54;;;;;;;9.50;5.18;;;;;;;;;;5135082;27;20019;-69
2023/11/28 15:06:40;;;;;;;7.18;4.90;;;;;;;;;;5134815;27;20019;-69
2023/11/28 15:09:25;;;;;;;11.75;5.60;;;;;;;;;;5134694;27;20023;-69
2023/11/28 15:12:11;;;;;;;9.68;6.82;;;;;;;;;;5135172;27;20088;-71
2023/11/28 15:14:57;;;;;;;7.50;5.38;;;;;;;;;;5135868;27;20027;-69
2023/11/28 15:17:43;;;;;;;9.70;5.53;;;;;;;;;;5135151;27;20440;-69
2023/11/28 15:20:28;;;;;;;9.10;6.35;;;;;;;;;;5134992;27;20041;-68
2023/11/28 15:23:14;;;;;;;10.07;7.03;;;;;;;;;;5134727;27;20115;-70
2023/11/28 15:26:00;;;;;;;13.52;7.88;;;;;;;;;;5135040;27;20019;-69
2023/11/28 15:28:46;;;;;;;11.85;8.02;;;;;;;;;;5133680;27;20382;-69
2023/11/28 15:31:32;;;;;;;13.18;7.90;;;;;;;;;;5135557;27;20443;-69
2023/11/28 15:34:19;;;;;;;14.40;9.07;;;;;;;;;;5120046;27;20023;-69
2023/11/28 15:37:06;;;;;;;14.95;8.98;;;;;;;;;;5134111;27;20076;-70
2023/11/28 15:39:51;;;;;;;14.52;8.93;;;;;;;;;;5120207;27;20023;-69
2023/11/28 15:42:37;;;;;;;10.60;7.70;;;;;;;;;;5134741;27;20114;-69
2023/11/28 15:45:24;;;;;;;12.93;8.60;;;;;;;;;;5134402;27;20084;-69
2023/11/28 15:48:09;;;;;;;12.55;7.68;;;;;;;;;;5133632;27;20019;-68
2023/11/28 15:50:55;;;;;;;12.35;8.38;;;;;;;;;;5133768;27;20332;-69
2023/11/28 15:53:40;;;;;;;13.38;9.15;;;;;;;;;;5133155;27;20016;-69
2023/11/28 15:56:26;;;;;;;11.32;8.55;;;;;;;;;;5133399;27;20012;-69
2023/11/28 15:59:12;;;;;;;14.07;8.68;;;;;;;;;;5114179;28;20031;-70
2023/11/28 16:01:57;;;;;;;12.95;9.00;;;;;;;;;;5113665;28;20016;-68
2023/11/28 16:04:43;;;;;;;13.18;8.10;;;;;;;;;;5113335;28;20028;-70
2023/11/28 16:07:28;;;;;;;13.27;9.15;;;;;;;;;;5113423;28;20019;-70
2023/11/28 16:10:14;;;;;;;18.95;10.00;;;;;;;;;;5112976;28;20038;-68
2023/11/28 16:13:00;;;;;;;15.00;9.00;;;;;;;;;;5113901;28;20016;-69
2023/11/28 16:15:46;;;;;;;18.55;10.10;;;;;;;;;;5113575;28;20024;-68
2023/11/28 16:18:33;;;;;;;16.15;10.50;;;;;;;;;;5099017;28;20028;-70
2023/11/28 16:21:22;;;;;;;15.82;11.20;;;;;;;;;;5114343;28;20124;-68
2023/11/28 16:24:09;;;;;;;23.63;12.73;;;;;;;;;;5113737;28;20085;-70
2023/11/28 16:26:54;;;;;;;19.50;12.73;;;;;;;;;;5113679;28;20035;-71